createdAt,value
2018-06-08T00:00:09.548Z,22.27
2018-06-08T00:01:09.542Z,22.31
2018-06-08T00:02:09.532Z,22.20
2018-06-08T00:03:09.519Z,22.29
2018-06-08T00:04:09.508Z,22.14
2018-06-08T00:05:09.524Z,22.27
2018-06-08T00:06:09.486Z,22.14
2018-06-08T00:07:09.477Z,22.09
2018-06-08T00:08:09.469Z,22.14
2018-06-08T00:09:09.455Z,22.17
2018-06-08T00:10:09.444Z,22.10
2018-06-08T00:11:09.435Z,22.10
2018-06-08T00:12:09.423Z,22.09
2018-06-08T00:13:09.412Z,22.04
2018-06-08T00:14:09.401Z,22.07
2018-06-08T00:15:09.390Z,22.01
2018-06-08T00:16:09.383Z,22.01
2018-06-08T00:17:09.370Z,22.04
2018-06-08T00:18:09.360Z,22.01
2018-06-08T00:19:09.348Z,22.02
2018-06-08T00:20:09.339Z,21.98
2018-06-08T00:21:09.336Z,21.99
2018-06-08T00:22:09.315Z,21.91
2018-06-08T00:23:09.310Z,21.82
2018-06-08T00:24:09.297Z,21.78
2018-06-08T00:25:09.284Z,21.78
2018-06-08T00:26:09.272Z,21.92
2018-06-08T00:27:09.263Z,21.85
2018-06-08T00:28:09.270Z,21.81
2018-06-08T00:29:09.241Z,21.75
2018-06-08T00:30:09.232Z,21.76
2018-06-08T00:31:09.221Z,21.75
2018-06-08T00:32:09.207Z,21.72
2018-06-08T00:33:09.198Z,21.79
2018-06-08T00:34:09.189Z,21.78
2018-06-08T00:35:09.177Z,21.72
2018-06-08T00:36:09.165Z,21.76
2018-06-08T00:37:09.155Z,21.81
2018-06-08T00:38:09.145Z,21.72
2018-06-08T00:39:09.135Z,21.71
2018-06-08T00:40:09.121Z,21.75
2018-06-08T00:41:09.167Z,21.69
2018-06-08T00:42:09.102Z,21.69
2018-06-08T00:43:09.091Z,21.71
2018-06-08T00:44:09.078Z,21.71
2018-06-08T00:45:09.069Z,21.59
2018-06-08T00:46:09.056Z,21.69
2018-06-08T00:47:09.045Z,21.60
2018-06-08T00:48:09.032Z,21.57
2018-06-08T00:49:09.024Z,21.50
2018-06-08T00:50:09.016Z,21.48
2018-06-08T00:51:09.001Z,21.51
2018-06-08T00:52:08.992Z,21.42
2018-06-08T00:53:08.984Z,21.41
2018-06-08T00:54:08.969Z,21.42
2018-06-08T00:55:08.959Z,21.41
2018-06-08T00:56:08.948Z,21.36
2018-06-08T00:57:08.939Z,21.35
2018-06-08T00:58:08.924Z,21.29
2018-06-08T00:59:08.915Z,21.24
2018-06-08T01:00:08.905Z,21.24
2018-06-08T01:01:08.896Z,21.32
2018-06-08T01:02:08.882Z,21.21
2018-06-08T01:03:08.870Z,21.23
2018-06-08T01:04:08.860Z,21.17
2018-06-08T01:05:08.848Z,21.21
2018-06-08T01:06:08.837Z,21.21
2018-06-08T01:07:08.827Z,21.19
2018-06-08T01:08:08.812Z,21.19
2018-06-08T01:09:08.805Z,21.16
2018-06-08T01:10:08.793Z,21.20
2018-06-08T01:11:08.782Z,21.19
2018-06-08T01:12:08.771Z,21.14
2018-06-08T01:13:08.761Z,21.23
2018-06-08T01:14:08.748Z,21.13
2018-06-08T01:15:08.747Z,21.19
2018-06-08T01:16:08.725Z,21.16
2018-06-08T01:17:08.714Z,21.20
2018-06-08T01:18:08.704Z,21.19
2018-06-08T01:19:08.701Z,21.17
2018-06-08T01:20:08.681Z,21.19
2018-06-08T01:21:08.673Z,21.23
2018-06-08T01:22:08.659Z,21.21
2018-06-08T01:23:08.652Z,21.17
2018-06-08T01:24:08.637Z,21.11
2018-06-08T01:25:08.627Z,21.13
2018-06-08T01:26:08.614Z,21.16
2018-06-08T01:27:08.606Z,21.13
2018-06-08T01:28:08.592Z,21.13
2018-06-08T01:29:08.582Z,21.11
2018-06-08T01:30:08.570Z,21.09
2018-06-08T01:31:08.558Z,21.05
2018-06-08T01:32:08.548Z,21.09
2018-06-08T01:33:08.538Z,21.04
2018-06-08T01:34:08.524Z,21.04
2018-06-08T01:35:08.515Z,21.09
2018-06-08T01:36:08.505Z,21.09
2018-06-08T01:37:08.488Z,21.06
2018-06-08T01:38:08.485Z,21.04
2018-06-08T01:39:08.470Z,21.02
2018-06-08T01:40:08.458Z,21.09
2018-06-08T01:41:08.456Z,21.13
2018-06-08T01:42:08.436Z,21.11
2018-06-08T01:43:08.425Z,21.08
2018-06-08T01:44:08.416Z,21.04
2018-06-08T01:45:08.402Z,21.08
2018-06-08T01:46:08.391Z,21.13
2018-06-08T01:47:08.379Z,21.08
2018-06-08T01:48:08.372Z,20.98
2018-06-08T01:49:08.357Z,20.95
2018-06-08T01:50:08.346Z,20.96
2018-06-08T01:51:08.338Z,20.96
2018-06-08T01:52:08.328Z,20.95
2018-06-08T01:53:08.314Z,20.99
2018-06-08T01:54:08.301Z,20.98
2018-06-08T01:55:08.295Z,21.01
2018-06-08T01:56:08.279Z,20.93
2018-06-08T01:57:08.268Z,21.05
2018-06-08T01:58:08.256Z,20.95
2018-06-08T01:59:08.248Z,20.90
2018-06-08T02:00:08.234Z,20.91
2018-06-08T02:01:08.223Z,20.86
2018-06-08T02:02:08.211Z,20.79
2018-06-08T02:03:08.199Z,20.90
2018-06-08T02:04:08.188Z,20.83
2018-06-08T02:05:08.178Z,20.87
2018-06-08T02:06:08.166Z,20.87
2018-06-08T02:07:08.156Z,20.86
2018-06-08T02:08:08.146Z,20.86
2018-06-08T02:09:08.132Z,20.80
2018-06-08T02:10:08.120Z,20.81
2018-06-08T02:11:08.112Z,20.81
2018-06-08T02:12:08.103Z,20.87
2018-06-08T02:13:08.088Z,20.84
2018-06-08T02:14:08.075Z,20.87
2018-06-08T02:15:08.075Z,20.79
2018-06-08T02:16:08.053Z,20.79
2018-06-08T02:17:08.133Z,20.76
2018-06-08T02:18:08.056Z,20.65
2018-06-08T02:19:08.044Z,20.66
2018-06-08T02:20:08.032Z,20.81
2018-06-08T02:21:08.021Z,20.62
2018-06-08T02:22:08.009Z,20.65
2018-06-08T02:24:39.794Z,20.79
2018-06-08T02:25:39.765Z,20.68
2018-06-08T02:27:33.220Z,20.65
2018-06-08T02:28:32.792Z,20.79
2018-06-08T02:30:25.907Z,20.77
2018-06-08T02:31:25.846Z,20.64
2018-06-08T02:33:18.915Z,20.66
2018-06-08T02:34:18.882Z,20.71
2018-06-08T02:36:11.982Z,20.68
2018-06-08T02:37:11.913Z,20.71
2018-06-08T02:39:04.982Z,20.66
2018-06-08T02:40:04.943Z,20.62
2018-06-08T02:41:58.038Z,20.68
2018-06-08T02:42:57.973Z,20.76
2018-06-08T02:44:52.578Z,20.86
2018-06-08T02:45:52.500Z,20.72
2018-06-08T02:47:45.583Z,20.87
2018-06-08T02:48:45.540Z,20.83
2018-06-08T02:50:38.640Z,20.84
2018-06-08T02:51:38.581Z,20.81
2018-06-08T02:53:31.674Z,20.84
2018-06-08T02:54:31.621Z,20.81
2018-06-08T02:56:24.711Z,20.83
2018-06-08T02:57:24.678Z,20.81
2018-06-08T02:59:18.158Z,20.83
2018-06-08T03:00:17.712Z,20.90
2018-06-08T03:02:10.808Z,20.87
2018-06-08T03:03:10.749Z,20.87
2018-06-08T03:05:03.855Z,20.93
2018-06-08T03:06:03.814Z,20.91
2018-06-08T03:07:03.807Z,20.98
2018-06-08T03:08:03.794Z,21.05
2018-06-08T03:09:03.807Z,20.98
2018-06-08T03:10:03.768Z,20.93
2018-06-08T03:11:03.761Z,20.99
2018-06-08T03:12:03.791Z,20.98
2018-06-08T03:13:03.734Z,20.95
2018-06-08T03:14:03.731Z,20.98
2018-06-08T03:15:03.710Z,20.96
2018-06-08T03:16:03.699Z,20.95
2018-06-08T03:17:03.687Z,20.96
2018-06-08T03:18:03.681Z,20.99
2018-06-08T03:19:03.668Z,20.96
2018-06-08T03:20:03.655Z,21.02
2018-06-08T03:21:03.643Z,20.96
2018-06-08T03:22:03.634Z,21.06
2018-06-08T03:23:03.624Z,21.06
2018-06-08T03:24:03.607Z,21.05
2018-06-08T03:25:03.596Z,20.96
2018-06-08T03:26:03.589Z,20.98
2018-06-08T03:27:03.574Z,21.05
2018-06-08T03:28:03.570Z,20.96
2018-06-08T03:29:03.556Z,20.99
2018-06-08T03:30:03.545Z,21.02
2018-06-08T03:31:03.527Z,21.05
2018-06-08T03:32:03.516Z,21.05
2018-06-08T03:33:03.508Z,21.02
2018-06-08T03:34:03.496Z,21.11
2018-06-08T03:35:03.487Z,21.06
2018-06-08T03:36:03.544Z,20.99
2018-06-08T03:37:03.462Z,21.02
2018-06-08T03:38:03.460Z,20.98
2018-06-08T03:39:03.442Z,20.99
2018-06-08T03:40:03.426Z,20.95
2018-06-08T03:41:03.420Z,21.02
2018-06-08T03:42:03.401Z,21.02
2018-06-08T03:43:03.391Z,21.02
2018-06-08T03:44:03.381Z,20.99
2018-06-08T03:45:03.378Z,20.93
2018-06-08T03:46:03.360Z,20.95
2018-06-08T03:47:03.349Z,20.95
2018-06-08T03:48:03.337Z,20.90
2018-06-08T03:49:03.359Z,20.96
2018-06-08T03:50:03.321Z,20.95
2018-06-08T03:51:03.306Z,20.91
2018-06-08T03:52:03.290Z,20.96
2018-06-08T03:53:03.282Z,20.90
2018-06-08T03:54:03.267Z,20.96
2018-06-08T03:55:03.266Z,20.89
2018-06-08T03:56:03.299Z,20.93
2018-06-08T03:57:03.238Z,20.95
2018-06-08T03:58:03.224Z,20.90
2018-06-08T03:59:03.210Z,21.01
2018-06-08T04:00:03.198Z,20.95
2018-06-08T04:01:03.196Z,20.95
2018-06-08T04:02:03.177Z,20.98
2018-06-08T04:03:03.169Z,20.99
2018-06-08T04:04:03.153Z,21.02
2018-06-08T04:05:03.144Z,21.06
2018-06-08T04:06:03.137Z,21.11
2018-06-08T04:07:03.123Z,21.08
2018-06-08T04:08:03.118Z,21.20
2018-06-08T04:09:03.101Z,21.29
2018-06-08T04:10:03.087Z,21.26
2018-06-08T04:11:03.084Z,21.29
2018-06-08T04:12:03.066Z,21.30
2018-06-08T04:13:03.154Z,21.34
2018-06-08T04:14:03.041Z,21.34
2018-06-08T04:15:03.034Z,21.32
2018-06-08T04:16:03.023Z,21.36
2018-06-08T04:17:03.013Z,21.27
2018-06-08T04:18:03.015Z,21.26
2018-06-08T04:19:02.992Z,21.30
2018-06-08T04:20:02.978Z,21.27
2018-06-08T04:21:02.974Z,21.30
2018-06-08T04:22:02.955Z,21.21
2018-06-08T04:23:02.949Z,21.35
2018-06-08T04:24:02.932Z,21.34
2018-06-08T04:25:02.922Z,21.20
2018-06-08T04:26:02.911Z,21.24
2018-06-08T04:27:02.909Z,21.27
2018-06-08T04:28:02.892Z,21.21
2018-06-08T04:29:02.873Z,21.19
2018-06-08T04:30:02.869Z,21.20
2018-06-08T04:31:02.860Z,21.24
2018-06-08T04:32:02.840Z,21.29
2018-06-08T04:33:02.982Z,21.24
2018-06-08T04:34:02.823Z,21.29
2018-06-08T04:35:02.808Z,21.29
2018-06-08T04:36:02.797Z,21.29
2018-06-08T04:37:02.787Z,21.27
2018-06-08T04:38:02.784Z,21.26
2018-06-08T04:39:02.766Z,21.35
2018-06-08T04:40:02.809Z,21.35
2018-06-08T04:41:02.744Z,21.35
2018-06-08T04:42:02.730Z,21.27
2018-06-08T04:43:02.722Z,21.35
2018-06-08T04:44:02.705Z,21.30
2018-06-08T04:45:02.709Z,21.41
2018-06-08T04:46:02.691Z,21.42
2018-06-08T04:47:02.677Z,21.44
2018-06-08T04:48:02.667Z,21.53
2018-06-08T04:49:02.656Z,21.54
2018-06-08T04:50:02.645Z,21.48
2018-06-08T04:51:02.643Z,21.45
2018-06-08T04:52:02.629Z,21.44
2018-06-08T04:53:02.610Z,21.42
2018-06-08T04:54:02.600Z,21.35
2018-06-08T04:55:02.586Z,21.42
2018-06-08T04:56:02.585Z,21.48
2018-06-08T04:57:02.570Z,21.53
2018-06-08T04:58:02.561Z,21.54
2018-06-08T04:59:02.542Z,21.48
2018-06-08T05:00:02.555Z,21.51
2018-06-08T05:01:02.543Z,21.64
2018-06-08T05:02:02.511Z,21.71
2018-06-08T05:03:02.498Z,21.72
2018-06-08T05:04:02.503Z,21.83
2018-06-08T05:05:02.507Z,21.81
2018-06-08T05:06:02.466Z,21.85
2018-06-08T05:07:02.493Z,22.02
2018-06-08T05:08:02.468Z,21.94
2018-06-08T05:09:02.473Z,22.06
2018-06-08T05:10:02.424Z,22.10
2018-06-08T05:11:02.417Z,22.12
2018-06-08T05:12:02.435Z,22.14
2018-06-08T05:13:02.399Z,22.14
2018-06-08T05:14:02.389Z,22.32
2018-06-08T05:15:02.400Z,22.25
2018-06-08T05:16:02.376Z,22.39
2018-06-08T05:17:02.399Z,22.34
2018-06-08T05:18:02.348Z,22.44
2018-06-08T05:19:02.400Z,22.47
2018-06-08T05:20:02.350Z,22.47
2018-06-08T05:21:02.331Z,22.46
2018-06-08T05:22:02.324Z,22.46
2018-06-08T05:23:02.311Z,22.49
2018-06-08T05:24:02.284Z,22.43
2018-06-08T05:25:02.287Z,22.47
2018-06-08T05:26:02.271Z,22.47
2018-06-08T05:27:02.351Z,22.50
2018-06-08T05:28:02.259Z,22.39
2018-06-08T05:29:02.237Z,22.39
2018-06-08T05:30:02.225Z,22.37
2018-06-08T05:31:02.218Z,22.43
2018-06-08T05:32:02.206Z,22.46
2018-06-08T05:33:02.295Z,22.49
2018-06-08T05:34:02.177Z,22.52
2018-06-08T05:35:02.193Z,22.52
2018-06-08T05:36:02.192Z,22.49
2018-06-08T05:37:02.163Z,22.52
2018-06-08T05:38:02.149Z,22.47
2018-06-08T05:39:02.124Z,22.47
2018-06-08T05:40:02.123Z,22.56
2018-06-08T05:41:02.115Z,22.53
2018-06-08T05:42:02.118Z,22.57
2018-06-08T05:43:02.125Z,22.62
2018-06-08T05:44:02.087Z,22.72
2018-06-08T05:45:02.105Z,22.69
2018-06-08T05:46:02.071Z,22.69
2018-06-08T05:47:02.053Z,22.74
2018-06-08T05:48:02.036Z,22.68
2018-06-08T05:49:02.034Z,22.77
2018-06-08T05:50:02.028Z,22.94
2018-06-08T05:51:02.052Z,22.90
2018-06-08T05:52:02.010Z,22.94
2018-06-08T05:53:01.991Z,22.96
2018-06-08T05:54:01.991Z,22.89
2018-06-08T05:55:02.028Z,22.94
2018-06-08T05:56:01.976Z,23.01
2018-06-08T05:57:01.976Z,23.01
2018-06-08T05:58:01.957Z,23.08
2018-06-08T05:59:01.938Z,23.20
2018-06-08T06:00:01.923Z,23.19
2018-06-08T06:01:01.929Z,23.19
2018-06-08T06:02:01.915Z,23.15
2018-06-08T06:03:01.931Z,23.26
2018-06-08T06:04:01.904Z,23.35
2018-06-08T06:05:01.879Z,23.40
2018-06-08T06:06:01.864Z,23.52
2018-06-08T06:07:01.854Z,23.53
2018-06-08T06:08:01.857Z,23.55
2018-06-08T06:09:01.843Z,23.47
2018-06-08T06:10:01.829Z,23.22
2018-06-08T06:11:01.818Z,23.12
2018-06-08T06:12:01.851Z,23.11
2018-06-08T06:13:01.843Z,23.08
2018-06-08T06:14:01.790Z,23.19
2018-06-08T06:15:01.791Z,23.19
2018-06-08T06:16:01.793Z,23.24
2018-06-08T06:17:01.754Z,23.23
2018-06-08T06:18:01.784Z,23.31
2018-06-08T06:19:01.737Z,23.43
2018-06-08T06:20:01.756Z,23.52
2018-06-08T06:21:01.772Z,23.60
2018-06-08T06:22:01.724Z,23.57
2018-06-08T06:23:01.734Z,23.55
2018-06-08T06:24:01.716Z,23.62
2018-06-08T06:25:01.713Z,23.55
2018-06-08T06:26:01.705Z,23.40
2018-06-08T06:27:01.683Z,23.27
2018-06-08T06:28:01.659Z,23.31
2018-06-08T06:29:01.668Z,23.22
2018-06-08T06:30:01.694Z,23.08
2018-06-08T06:31:01.631Z,22.99
2018-06-08T06:32:01.641Z,23.05
2018-06-08T06:33:01.638Z,23.08
2018-06-08T06:34:01.614Z,23.22
2018-06-08T06:35:01.595Z,23.34
2018-06-08T06:36:01.602Z,23.23
2018-06-08T06:37:01.582Z,23.26
2018-06-08T06:38:01.583Z,23.23
2018-06-08T06:39:01.562Z,23.35
2018-06-08T06:40:01.571Z,23.40
2018-06-08T06:41:01.531Z,23.50
2018-06-08T06:42:01.555Z,23.50
2018-06-08T06:43:01.521Z,23.75
2018-06-08T06:44:01.585Z,23.70
2018-06-08T06:45:01.503Z,23.72
2018-06-08T06:46:01.494Z,23.85
2018-06-08T06:47:01.485Z,23.83
2018-06-08T06:48:01.498Z,23.87
2018-06-08T06:49:01.482Z,23.89
2018-06-08T06:50:01.471Z,23.98
2018-06-08T06:51:01.450Z,24.08
2018-06-08T06:52:01.442Z,24.13
2018-06-08T06:53:01.444Z,24.24
2018-06-08T06:54:01.413Z,24.32
2018-06-08T06:55:01.451Z,24.37
2018-06-08T06:56:01.431Z,24.45
2018-06-08T06:57:01.398Z,24.45
2018-06-08T06:58:01.387Z,24.44
2018-06-08T06:59:01.381Z,24.54
2018-06-08T07:00:01.380Z,24.56
2018-06-08T07:01:01.362Z,24.56
2018-06-08T07:02:01.347Z,24.63
2018-06-08T07:03:01.345Z,24.68
2018-06-08T07:04:01.333Z,24.77
2018-06-08T07:05:01.346Z,24.56
2018-06-08T07:06:01.331Z,24.59
2018-06-08T07:07:01.364Z,24.42
2018-06-08T07:08:01.323Z,24.49
2018-06-08T07:09:01.311Z,24.42
2018-06-08T07:10:01.291Z,24.32
2018-06-08T07:11:01.280Z,24.24
2018-06-08T07:12:01.259Z,24.32
2018-06-08T07:13:01.271Z,24.32
2018-06-08T07:14:01.272Z,24.37
2018-06-08T07:15:01.289Z,24.41
2018-06-08T07:16:01.259Z,24.32
2018-06-08T07:17:01.224Z,24.31
2018-06-08T07:18:01.214Z,24.31
2018-06-08T07:19:01.217Z,24.44
2018-06-08T07:20:01.203Z,24.44
2018-06-08T07:21:01.204Z,24.35
2018-06-08T07:22:01.196Z,24.01
2018-06-08T07:23:01.195Z,23.72
2018-06-08T07:24:01.186Z,23.55
2018-06-08T07:25:01.182Z,23.55
2018-06-08T07:26:01.159Z,23.40
2018-06-08T07:27:01.174Z,23.31
2018-06-08T07:28:01.192Z,23.17
2018-06-08T07:29:01.133Z,23.20
2018-06-08T07:30:01.118Z,23.19
2018-06-08T07:31:01.115Z,23.26
2018-06-08T07:32:01.145Z,23.35
2018-06-08T07:33:01.093Z,23.45
2018-06-08T07:34:01.092Z,23.49
2018-06-08T07:35:01.070Z,23.52
2018-06-08T07:36:01.069Z,23.49
2018-06-08T07:37:01.171Z,23.53
2018-06-08T07:38:01.061Z,23.60
2018-06-08T07:39:01.043Z,23.72
2018-06-08T07:40:01.051Z,23.77
2018-06-08T07:41:01.052Z,23.68
2018-06-08T07:42:01.034Z,23.60
2018-06-08T07:43:01.081Z,23.72
2018-06-08T07:44:01.007Z,23.71
2018-06-08T07:45:01.012Z,23.64
2018-06-08T07:46:00.990Z,23.29
2018-06-08T07:47:00.984Z,23.08
2018-06-08T07:48:00.957Z,23.09
2018-06-08T07:49:00.950Z,23.19
2018-06-08T07:50:00.968Z,23.35
2018-06-08T07:51:00.953Z,23.45
2018-06-08T07:52:00.932Z,23.29
2018-06-08T07:53:00.914Z,23.24
2018-06-08T07:54:01.083Z,23.38
2018-06-08T07:55:00.896Z,23.47
2018-06-08T07:56:00.925Z,23.24
2018-06-08T07:57:00.883Z,23.02
2018-06-08T07:58:00.880Z,22.77
2018-06-08T07:59:00.880Z,22.72
2018-06-08T08:00:00.883Z,22.64
2018-06-08T08:01:00.849Z,22.75
2018-06-08T08:02:00.850Z,22.80
2018-06-08T08:03:00.825Z,23.01
2018-06-08T08:04:00.828Z,23.07
2018-06-08T08:05:00.816Z,22.99
2018-06-08T08:06:00.832Z,22.80
2018-06-08T08:07:00.814Z,22.82
2018-06-08T08:08:00.789Z,22.71
2018-06-08T08:09:00.777Z,22.50
2018-06-08T08:10:00.775Z,22.46
2018-06-08T08:11:00.803Z,22.47
2018-06-08T08:12:00.748Z,22.69
2018-06-08T08:13:00.743Z,22.69
2018-06-08T08:14:00.793Z,22.75
2018-06-08T08:15:00.785Z,22.84
2018-06-08T08:16:01.122Z,22.99
2018-06-08T08:17:00.735Z,23.09
2018-06-08T08:18:00.729Z,23.15
2018-06-08T08:19:00.754Z,23.29
2018-06-08T08:20:00.868Z,23.31
2018-06-08T08:21:00.688Z,23.26
2018-06-08T08:22:00.660Z,23.43
2018-06-08T08:23:00.675Z,23.47
2018-06-08T08:24:00.644Z,23.47
2018-06-08T08:25:00.636Z,23.38
2018-06-08T08:26:00.648Z,23.42
2018-06-08T08:27:00.633Z,23.47
2018-06-08T08:28:00.606Z,23.49
2018-06-08T08:29:00.599Z,23.55
2018-06-08T08:30:00.593Z,23.70
2018-06-08T08:31:00.569Z,23.82
2018-06-08T08:32:00.609Z,23.79
2018-06-08T08:33:00.591Z,23.75
2018-06-08T08:34:00.570Z,23.83
2018-06-08T08:35:00.553Z,23.92
2018-06-08T08:36:00.538Z,23.95
2018-06-08T08:37:00.541Z,23.95
2018-06-08T08:38:00.520Z,24.00
2018-06-08T08:39:00.540Z,23.95
2018-06-08T08:40:00.524Z,24.00
2018-06-08T08:41:00.498Z,24.01
2018-06-08T08:42:00.483Z,24.07
2018-06-08T08:43:00.478Z,24.04
2018-06-08T08:44:00.474Z,23.97
2018-06-08T08:45:00.462Z,24.00
2018-06-08T08:46:00.479Z,23.98
2018-06-08T08:47:00.433Z,24.00
2018-06-08T08:48:00.427Z,23.98
2018-06-08T08:49:00.510Z,23.89
2018-06-08T08:50:00.419Z,23.85
2018-06-08T08:51:00.403Z,23.92
2018-06-08T08:52:00.444Z,23.86
2018-06-08T08:53:00.378Z,23.82
2018-06-08T08:54:00.377Z,23.68
2018-06-08T08:55:00.356Z,23.77
2018-06-08T08:56:00.469Z,23.75
2018-06-08T08:57:00.352Z,23.68
2018-06-08T08:58:00.357Z,23.72
2018-06-08T08:59:00.362Z,23.65
2018-06-08T09:00:00.473Z,23.60
2018-06-08T09:01:00.310Z,23.64
2018-06-08T09:02:00.305Z,23.72
2018-06-08T09:03:00.284Z,23.70
2018-06-08T09:04:00.294Z,23.71
2018-06-08T09:05:00.292Z,23.85
2018-06-08T09:06:00.399Z,23.80
2018-06-08T09:07:00.259Z,23.87
2018-06-08T09:08:00.261Z,23.76
2018-06-08T09:09:00.260Z,23.82
2018-06-08T09:10:00.261Z,23.98
2018-06-08T09:11:00.236Z,23.95
2018-06-08T09:12:00.263Z,24.07
2018-06-08T09:13:00.246Z,24.22
2018-06-08T09:14:00.204Z,24.20
2018-06-08T09:15:00.231Z,24.32
2018-06-08T09:16:00.180Z,24.35
2018-06-08T09:17:00.167Z,24.41
2018-06-08T09:18:00.155Z,24.44
2018-06-08T09:19:00.147Z,24.45
2018-06-08T09:20:00.217Z,24.41
2018-06-08T09:21:00.160Z,24.57
2018-06-08T09:22:00.181Z,24.57
2018-06-08T09:23:00.160Z,24.61
2018-06-08T09:24:00.113Z,24.67
2018-06-08T09:25:00.112Z,24.75
2018-06-08T09:26:00.108Z,24.83
2018-06-08T09:27:00.083Z,24.87
2018-06-08T09:28:00.089Z,24.88
2018-06-08T09:29:00.412Z,24.91
2018-06-08T09:30:00.177Z,24.95
2018-06-08T09:31:00.058Z,24.98
2018-06-08T09:32:00.071Z,24.97
2018-06-08T09:33:00.038Z,24.97
2018-06-08T09:34:00.032Z,25.05
2018-06-08T09:35:00.026Z,24.94
2018-06-08T09:35:59.994Z,24.91
2018-06-08T09:36:59.983Z,24.90
2018-06-08T09:38:00.054Z,24.90
2018-06-08T09:39:00.037Z,24.97
2018-06-08T09:40:00.024Z,24.87
2018-06-08T09:40:59.956Z,24.73
2018-06-08T09:41:59.961Z,24.64
2018-06-08T09:42:59.960Z,24.54
2018-06-08T09:43:59.958Z,24.60
2018-06-08T09:44:59.920Z,24.49
2018-06-08T09:45:59.996Z,24.54
2018-06-08T09:46:59.926Z,24.59
2018-06-08T09:47:59.916Z,24.68
2018-06-08T09:48:59.882Z,24.76
2018-06-08T09:49:59.915Z,24.59
2018-06-08T09:50:59.893Z,24.64
2018-06-08T09:51:59.890Z,24.77
2018-06-08T09:52:59.861Z,24.75
2018-06-08T09:53:59.908Z,24.76
2018-06-08T09:54:59.846Z,24.69
2018-06-08T09:55:59.857Z,24.75
2018-06-08T09:56:59.824Z,24.64
2018-06-08T09:57:59.828Z,24.68
2018-06-08T09:58:59.814Z,24.69
2018-06-08T09:59:59.796Z,24.69
2018-06-08T10:00:59.797Z,24.64
2018-06-08T10:01:59.785Z,24.71
2018-06-08T10:02:59.780Z,24.61
2018-06-08T10:03:59.769Z,24.54
2018-06-08T10:04:59.760Z,24.56
2018-06-08T10:05:59.775Z,24.59
2018-06-08T10:06:59.765Z,24.49
2018-06-08T10:07:59.752Z,24.37
2018-06-08T10:08:59.732Z,24.38
2018-06-08T10:09:59.750Z,24.26
2018-06-08T10:10:59.722Z,24.32
2018-06-08T10:11:59.717Z,24.31
2018-06-08T10:12:59.696Z,24.27
2018-06-08T10:13:59.679Z,24.17
2018-06-08T10:14:59.743Z,24.17
2018-06-08T10:15:59.674Z,24.17
2018-06-08T10:16:59.682Z,24.16
2018-06-08T10:17:59.683Z,24.14
2018-06-08T10:18:59.647Z,24.17
2018-06-08T10:19:59.647Z,24.14
2018-06-08T10:20:59.647Z,24.14
2018-06-08T10:21:59.620Z,24.13
2018-06-08T10:22:59.635Z,24.17
2018-06-08T10:23:59.614Z,24.10
2018-06-08T10:24:59.652Z,24.07
2018-06-08T10:25:59.658Z,24.04
2018-06-08T10:26:59.584Z,24.05
2018-06-08T10:27:59.597Z,24.05
2018-06-08T10:28:59.578Z,23.95
2018-06-08T10:29:59.547Z,24.00
2018-06-08T10:30:59.545Z,24.12
2018-06-08T10:31:59.543Z,24.02
2018-06-08T10:32:59.534Z,24.04
2018-06-08T10:33:59.598Z,24.07
2018-06-08T10:34:59.528Z,23.98
2018-06-08T10:35:59.512Z,23.95
2018-06-08T10:36:59.494Z,23.95
2018-06-08T10:37:59.546Z,23.98
2018-06-08T10:38:59.471Z,24.00
2018-06-08T10:39:59.485Z,23.92
2018-06-08T10:40:59.463Z,23.97
2018-06-08T10:41:59.464Z,23.89
2018-06-08T10:42:59.450Z,23.83
2018-06-08T10:43:59.434Z,23.71
2018-06-08T10:44:59.422Z,23.72
2018-06-08T10:45:59.406Z,23.67
2018-06-08T10:46:59.426Z,23.71
2018-06-08T10:47:59.421Z,23.62
2018-06-08T10:48:59.444Z,23.53
2018-06-08T10:50:00.265Z,23.60
2018-06-08T10:50:59.369Z,23.62
2018-06-08T10:51:59.391Z,23.57
2018-06-08T10:52:59.357Z,23.42
2018-06-08T10:53:59.356Z,23.29
2018-06-08T10:54:59.339Z,23.23
2018-06-08T10:55:59.321Z,23.27
2018-06-08T10:56:59.319Z,23.23
2018-06-08T10:57:59.313Z,23.17
2018-06-08T10:58:59.305Z,23.07
2018-06-08T10:59:59.284Z,22.96
2018-06-08T11:00:59.474Z,22.90
2018-06-08T11:01:59.271Z,22.84
2018-06-08T11:02:59.257Z,22.77
2018-06-08T11:03:59.229Z,22.77
2018-06-08T11:04:59.221Z,22.71
2018-06-08T11:05:59.325Z,22.59
2018-06-08T11:06:59.222Z,22.49
2018-06-08T11:07:59.225Z,22.43
2018-06-08T11:08:59.211Z,22.38
2018-06-08T11:09:59.240Z,22.35
2018-06-08T11:10:59.171Z,22.38
2018-06-08T11:11:59.152Z,22.37
2018-06-08T11:12:59.161Z,22.37
2018-06-08T11:13:59.142Z,22.27
2018-06-08T11:14:59.137Z,22.35
2018-06-08T11:15:59.157Z,22.47
2018-06-08T11:16:59.125Z,22.34
2018-06-08T11:17:59.099Z,22.37
2018-06-08T11:18:59.120Z,22.20
2018-06-08T11:19:59.079Z,22.19
2018-06-08T11:20:59.069Z,22.19
2018-06-08T11:21:59.084Z,22.17
2018-06-08T11:22:59.047Z,22.17
2018-06-08T11:23:59.042Z,22.12
2018-06-08T11:24:59.026Z,22.06
2018-06-08T11:25:59.020Z,22.06
2018-06-08T11:26:59.088Z,22.02
2018-06-08T11:27:59.006Z,21.95
2018-06-08T11:28:58.997Z,21.92
2018-06-08T11:29:58.991Z,21.91
2018-06-08T11:30:58.968Z,21.99
2018-06-08T11:31:58.981Z,21.82
2018-06-08T11:32:58.982Z,21.78
2018-06-08T11:33:58.979Z,21.88
2018-06-08T11:34:58.927Z,21.88
2018-06-08T11:35:58.920Z,21.76
2018-06-08T11:36:58.916Z,21.76
2018-06-08T11:37:58.919Z,21.71
2018-06-08T11:38:58.886Z,21.56
2018-06-08T11:39:58.865Z,21.50
2018-06-08T11:40:58.880Z,21.48
2018-06-08T11:41:58.878Z,21.24
2018-06-08T11:42:58.922Z,21.29
2018-06-08T11:43:58.843Z,21.16
2018-06-08T11:44:58.849Z,21.19
2018-06-08T11:45:58.800Z,21.16
2018-06-08T11:46:58.795Z,21.04
2018-06-08T11:47:58.800Z,20.96
2018-06-08T11:48:59.295Z,21.01
2018-06-08T11:49:58.761Z,20.98
2018-06-08T11:50:58.758Z,20.91
2018-06-08T11:51:58.879Z,20.93
2018-06-08T11:52:58.728Z,20.98
2018-06-08T11:53:58.765Z,20.93
2018-06-08T11:54:58.739Z,20.91
2018-06-08T11:55:58.721Z,20.81
2018-06-08T11:56:58.675Z,20.83
2018-06-08T11:57:58.669Z,20.86
2018-06-08T11:58:58.660Z,20.86
2018-06-08T11:59:58.874Z,20.84
2018-06-08T12:00:58.665Z,20.76
2018-06-08T12:01:58.623Z,20.77
2018-06-08T12:02:58.617Z,20.74
2018-06-08T12:03:58.604Z,20.76
2018-06-08T12:04:58.600Z,20.66
2018-06-08T12:05:58.610Z,20.56
2018-06-08T12:06:58.584Z,20.42
2018-06-08T12:07:58.591Z,20.46
2018-06-08T12:08:58.587Z,20.30
2018-06-08T12:09:58.545Z,20.27
2018-06-08T12:10:58.534Z,20.20
2018-06-08T12:11:58.525Z,20.23
2018-06-08T12:12:58.518Z,20.30
2018-06-08T12:13:58.479Z,20.25
2018-06-08T12:14:58.496Z,20.28
2018-06-08T12:15:58.458Z,20.35
2018-06-08T12:16:58.478Z,20.38
2018-06-08T12:17:58.443Z,20.30
2018-06-08T12:18:58.424Z,20.46
2018-06-08T12:19:58.407Z,20.41
2018-06-08T12:20:58.407Z,20.33
2018-06-08T12:21:58.384Z,20.33
2018-06-08T12:22:58.388Z,20.27
2018-06-08T12:23:58.379Z,20.25
2018-06-08T12:24:58.357Z,20.13
2018-06-08T12:25:58.347Z,20.15
2018-06-08T12:26:58.340Z,20.16
2018-06-08T12:27:58.373Z,20.18
2018-06-08T12:28:58.318Z,20.25
2018-06-08T12:29:58.296Z,20.21
2018-06-08T12:30:58.305Z,20.20
2018-06-08T12:31:58.273Z,20.23
2018-06-08T12:32:58.270Z,20.27
2018-06-08T12:33:58.247Z,20.27
2018-06-08T12:34:58.249Z,20.28
2018-06-08T12:35:58.245Z,20.27
2018-06-08T12:36:58.212Z,20.33
2018-06-08T12:38:01.225Z,20.41
2018-06-08T12:38:58.217Z,20.42
2018-06-08T12:39:58.186Z,20.30
2018-06-08T12:40:58.177Z,20.33
2018-06-08T12:41:58.155Z,20.42
2018-06-08T12:42:58.141Z,20.43
2018-06-08T12:43:58.126Z,20.38
2018-06-08T12:44:58.133Z,20.28
2018-06-08T12:45:58.102Z,20.27
2018-06-08T12:46:58.089Z,20.34
2018-06-08T12:47:58.084Z,20.35
2018-06-08T12:48:58.113Z,20.47
2018-06-08T12:49:58.081Z,20.64
2018-06-08T12:50:58.053Z,20.56
2018-06-08T12:51:58.031Z,20.62
2018-06-08T12:52:58.026Z,20.62
2018-06-08T12:53:58.032Z,20.72
2018-06-08T12:54:58.007Z,20.83
2018-06-08T12:55:58.002Z,20.81
2018-06-08T12:56:58.006Z,20.89
2018-06-08T12:57:57.961Z,20.89
2018-06-08T12:58:57.964Z,20.81
2018-06-08T12:59:57.939Z,20.77
2018-06-08T13:00:57.965Z,20.64
2018-06-08T13:01:57.917Z,20.69
2018-06-08T13:02:57.916Z,20.66
2018-06-08T13:03:57.927Z,20.83
2018-06-08T13:04:57.885Z,20.83
2018-06-08T13:05:57.867Z,20.64